sensor_id;sensor_type;location;lat;lon;timestamp;P1;durP1;ratioP1;P2;durP2;ratioP2
11490;SDS011;5802;52.832;4.758;2024-02-14T00:00:02;1.67;;;1.00;;
11490;SDS011;5802;52.832;4.758;2024-02-14T00:02:30;1.45;;;1.13;;
11490;SDS011;5802;52.832;4.758;2024-02-14T00:04:58;1.23;;;0.93;;
11490;SDS011;5802;52.832;4.758;2024-02-14T00:07:25;1.70;;;1.00;;
11490;SDS011;5802;52.832;4.758;2024-02-14T00:09:52;1.75;;;1.00;;
11490;SDS011;5802;52.832;4.758;2024-02-14T00:12:19;1.00;;;0.90;;
11490;SDS011;5802;52.832;4.758;2024-02-14T00:14:46;1.55;;;0.93;;
11490;SDS011;5802;52.832;4.758;2024-02-14T00:17:13;1.38;;;1.02;;
11490;SDS011;5802;52.832;4.758;2024-02-14T00:19:40;1.10;;;0.95;;
11490;SDS011;5802;52.832;4.758;2024-02-14T00:22:08;1.33;;;1.00;;
11490;SDS011;5802;52.832;4.758;2024-02-14T00:24:35;1.63;;;1.00;;
11490;SDS011;5802;52.832;4.758;2024-02-14T00:27:02;1.50;;;1.00;;
11490;SDS011;5802;52.832;4.758;2024-02-14T00:29:29;0.85;;;0.80;;
11490;SDS011;5802;52.832;4.758;2024-02-14T00:31:59;1.27;;;1.00;;
11490;SDS011;5802;52.832;4.758;2024-02-14T00:34:26;1.65;;;1.17;;
11490;SDS011;5802;52.832;4.758;2024-02-14T00:36:53;3.35;;;1.23;;
11490;SDS011;5802;52.832;4.758;2024-02-14T00:39:21;1.27;;;1.00;;
11490;SDS011;5802;52.832;4.758;2024-02-14T00:41:48;1.70;;;1.08;;
11490;SDS011;5802;52.832;4.758;2024-02-14T00:44:17;1.00;;;0.90;;
11490;SDS011;5802;52.832;4.758;2024-02-14T00:46:44;2.83;;;1.10;;
11490;SDS011;5802;52.832;4.758;2024-02-14T00:49:11;1.98;;;0.90;;
11490;SDS011;5802;52.832;4.758;2024-02-14T00:51:38;1.92;;;0.88;;
11490;SDS011;5802;52.832;4.758;2024-02-14T00:54:05;1.33;;;0.90;;
11490;SDS011;5802;52.832;4.758;2024-02-14T00:56:34;4.90;;;1.10;;
11490;SDS011;5802;52.832;4.758;2024-02-14T00:59:01;3.67;;;1.05;;
11490;SDS011;5802;52.832;4.758;2024-02-14T01:01:28;2.67;;;1.20;;
11490;SDS011;5802;52.832;4.758;2024-02-14T01:03:55;1.70;;;1.00;;
11490;SDS011;5802;52.832;4.758;2024-02-14T01:06:21;2.63;;;0.95;;
11490;SDS011;5802;52.832;4.758;2024-02-14T01:08:49;3.28;;;1.10;;
11490;SDS011;5802;52.832;4.758;2024-02-14T01:11:16;2.65;;;0.98;;
11490;SDS011;5802;52.832;4.758;2024-02-14T01:13:44;2.55;;;1.10;;
11490;SDS011;5802;52.832;4.758;2024-02-14T01:16:11;2.90;;;1.40;;
11490;SDS011;5802;52.832;4.758;2024-02-14T01:18:39;1.92;;;1.05;;
11490;SDS011;5802;52.832;4.758;2024-02-14T01:21:06;1.95;;;1.15;;
11490;SDS011;5802;52.832;4.758;2024-02-14T01:23:34;3.22;;;1.02;;
11490;SDS011;5802;52.832;4.758;2024-02-14T01:26:01;2.05;;;0.90;;
11490;SDS011;5802;52.832;4.758;2024-02-14T01:28:28;1.58;;;1.10;;
11490;SDS011;5802;52.832;4.758;2024-02-14T01:30:56;2.90;;;1.00;;
11490;SDS011;5802;52.832;4.758;2024-02-14T01:33:23;2.38;;;1.20;;
11490;SDS011;5802;52.832;4.758;2024-02-14T01:35:50;1.02;;;0.73;;
11490;SDS011;5802;52.832;4.758;2024-02-14T01:38:16;2.65;;;1.05;;
11490;SDS011;5802;52.832;4.758;2024-02-14T01:40:43;2.45;;;1.00;;
11490;SDS011;5802;52.832;4.758;2024-02-14T01:43:11;3.35;;;1.13;;
11490;SDS011;5802;52.832;4.758;2024-02-14T01:45:39;2.25;;;1.42;;
11490;SDS011;5802;52.832;4.758;2024-02-14T01:48:08;2.70;;;1.10;;
11490;SDS011;5802;52.832;4.758;2024-02-14T01:50:35;4.07;;;0.98;;
11490;SDS011;5802;52.832;4.758;2024-02-14T01:53:03;2.55;;;1.20;;
11490;SDS011;5802;52.832;4.758;2024-02-14T01:55:31;2.65;;;1.23;;
11490;SDS011;5802;52.832;4.758;2024-02-14T01:57:59;2.08;;;1.30;;
11490;SDS011;5802;52.832;4.758;2024-02-14T02:00:28;1.45;;;1.10;;
11490;SDS011;5802;52.832;4.758;2024-02-14T02:02:56;3.28;;;1.33;;
11490;SDS011;5802;52.832;4.758;2024-02-14T02:05:25;1.92;;;1.17;;
11490;SDS011;5802;52.832;4.758;2024-02-14T02:07:52;2.38;;;1.10;;
11490;SDS011;5802;52.832;4.758;2024-02-14T02:10:19;2.30;;;0.90;;
11490;SDS011;5802;52.832;4.758;2024-02-14T02:12:47;2.60;;;1.10;;
11490;SDS011;5802;52.832;4.758;2024-02-14T02:15:16;2.70;;;1.15;;
11490;SDS011;5802;52.832;4.758;2024-02-14T02:17:43;1.70;;;1.00;;
11490;SDS011;5802;52.832;4.758;2024-02-14T02:20:10;2.22;;;1.00;;
11490;SDS011;5802;52.832;4.758;2024-02-14T02:22:42;1.98;;;1.20;;
11490;SDS011;5802;52.832;4.758;2024-02-14T02:25:13;4.72;;;1.20;;
11490;SDS011;5802;52.832;4.758;2024-02-14T02:27:40;3.28;;;1.45;;
11490;SDS011;5802;52.832;4.758;2024-02-14T02:30:07;2.10;;;1.13;;
11490;SDS011;5802;52.832;4.758;2024-02-14T02:32:35;3.33;;;1.33;;
11490;SDS011;5802;52.832;4.758;2024-02-14T02:35:03;2.50;;;1.40;;
11490;SDS011;5802;52.832;4.758;2024-02-14T02:37:30;3.30;;;1.52;;
11490;SDS011;5802;52.832;4.758;2024-02-14T02:39:58;5.28;;;1.40;;
11490;SDS011;5802;52.832;4.758;2024-02-14T02:42:25;3.08;;;1.45;;
11490;SDS011;5802;52.832;4.758;2024-02-14T02:44:52;3.13;;;1.35;;
11490;SDS011;5802;52.832;4.758;2024-02-14T02:47:19;3.40;;;1.20;;
11490;SDS011;5802;52.832;4.758;2024-02-14T02:49:46;2.33;;;1.17;;
11490;SDS011;5802;52.832;4.758;2024-02-14T02:52:13;3.28;;;1.30;;
11490;SDS011;5802;52.832;4.758;2024-02-14T02:54:40;5.20;;;1.30;;
11490;SDS011;5802;52.832;4.758;2024-02-14T02:57:10;2.67;;;1.13;;
11490;SDS011;5802;52.832;4.758;2024-02-14T02:59:37;3.08;;;1.40;;
11490;SDS011;5802;52.832;4.758;2024-02-14T03:02:07;2.17;;;0.93;;
11490;SDS011;5802;52.832;4.758;2024-02-14T03:04:36;2.70;;;1.63;;
11490;SDS011;5802;52.832;4.758;2024-02-14T03:07:04;3.28;;;1.20;;
11490;SDS011;5802;52.832;4.758;2024-02-14T03:09:33;3.55;;;1.40;;
11490;SDS011;5802;52.832;4.758;2024-02-14T03:12:00;2.22;;;1.40;;
11490;SDS011;5802;52.832;4.758;2024-02-14T03:14:29;2.78;;;1.23;;
11490;SDS011;5802;52.832;4.758;2024-02-14T03:16:57;3.33;;;1.30;;
11490;SDS011;5802;52.832;4.758;2024-02-14T03:19:25;4.60;;;1.50;;
11490;SDS011;5802;52.832;4.758;2024-02-14T03:21:53;2.40;;;1.38;;
11490;SDS011;5802;52.832;4.758;2024-02-14T03:24:19;2.60;;;1.50;;
11490;SDS011;5802;52.832;4.758;2024-02-14T03:26:46;2.90;;;1.25;;
11490;SDS011;5802;52.832;4.758;2024-02-14T03:29:16;2.65;;;1.40;;
11490;SDS011;5802;52.832;4.758;2024-02-14T03:31:46;4.25;;;1.83;;
11490;SDS011;5802;52.832;4.758;2024-02-14T03:34:13;3.20;;;1.60;;
11490;SDS011;5802;52.832;4.758;2024-02-14T03:36:40;4.10;;;1.80;;
11490;SDS011;5802;52.832;4.758;2024-02-14T03:39:08;2.55;;;1.50;;
11490;SDS011;5802;52.832;4.758;2024-02-14T03:41:35;5.07;;;1.63;;
11490;SDS011;5802;52.832;4.758;2024-02-14T03:44:03;4.97;;;2.10;;
11490;SDS011;5802;52.832;4.758;2024-02-14T03:46:33;4.40;;;2.05;;
11490;SDS011;5802;52.832;4.758;2024-02-14T03:49:02;2.72;;;1.67;;
11490;SDS011;5802;52.832;4.758;2024-02-14T03:51:29;4.80;;;1.90;;
11490;SDS011;5802;52.832;4.758;2024-02-14T03:53:56;4.15;;;1.90;;
11490;SDS011;5802;52.832;4.758;2024-02-14T03:56:23;3.80;;;1.50;;
11490;SDS011;5802;52.832;4.758;2024-02-14T03:58:51;3.72;;;1.65;;
11490;SDS011;5802;52.832;4.758;2024-02-14T04:01:18;4.65;;;1.80;;
11490;SDS011;5802;52.832;4.758;2024-02-14T04:03:45;3.75;;;1.65;;
11490;SDS011;5802;52.832;4.758;2024-02-14T04:06:14;4.38;;;2.00;;
11490;SDS011;5802;52.832;4.758;2024-02-14T04:08:41;5.18;;;1.60;;
11490;SDS011;5802;52.832;4.758;2024-02-14T04:11:08;5.43;;;1.95;;
11490;SDS011;5802;52.832;4.758;2024-02-14T04:13:35;6.28;;;2.00;;
11490;SDS011;5802;52.832;4.758;2024-02-14T04:16:02;5.70;;;2.00;;
11490;SDS011;5802;52.832;4.758;2024-02-14T04:18:30;3.60;;;1.60;;
11490;SDS011;5802;52.832;4.758;2024-02-14T04:20:56;5.07;;;2.00;;
11490;SDS011;5802;52.832;4.758;2024-02-14T04:23:25;6.32;;;2.10;;
11490;SDS011;5802;52.832;4.758;2024-02-14T04:25:52;5.72;;;2.40;;
11490;SDS011;5802;52.832;4.758;2024-02-14T04:28:19;6.18;;;2.15;;
11490;SDS011;5802;52.832;4.758;2024-02-14T04:30:46;5.40;;;1.88;;
11490;SDS011;5802;52.832;4.758;2024-02-14T04:33:14;5.20;;;1.85;;
11490;SDS011;5802;52.832;4.758;2024-02-14T04:35:41;4.57;;;2.10;;
11490;SDS011;5802;52.832;4.758;2024-02-14T04:38:08;3.47;;;1.95;;
11490;SDS011;5802;52.832;4.758;2024-02-14T04:40:36;5.40;;;2.42;;
11490;SDS011;5802;52.832;4.758;2024-02-14T04:43:03;4.30;;;1.80;;
11490;SDS011;5802;52.832;4.758;2024-02-14T04:45:31;6.88;;;2.20;;
11490;SDS011;5802;52.832;4.758;2024-02-14T04:47:58;4.57;;;1.83;;
11490;SDS011;5802;52.832;4.758;2024-02-14T04:50:24;6.43;;;2.10;;
11490;SDS011;5802;52.832;4.758;2024-02-14T04:52:51;4.28;;;1.98;;
11490;SDS011;5802;52.832;4.758;2024-02-14T04:55:18;5.35;;;2.25;;
11490;SDS011;5802;52.832;4.758;2024-02-14T04:57:47;6.28;;;2.22;;
11490;SDS011;5802;52.832;4.758;2024-02-14T05:00:14;4.97;;;2.28;;
11490;SDS011;5802;52.832;4.758;2024-02-14T05:02:41;5.13;;;2.30;;
11490;SDS011;5802;52.832;4.758;2024-02-14T05:05:08;5.28;;;1.98;;
11490;SDS011;5802;52.832;4.758;2024-02-14T05:07:35;5.25;;;2.47;;
11490;SDS011;5802;52.832;4.758;2024-02-14T05:10:02;5.05;;;2.22;;
11490;SDS011;5802;52.832;4.758;2024-02-14T05:12:30;6.95;;;2.08;;
11490;SDS011;5802;52.832;4.758;2024-02-14T05:14:58;7.53;;;2.17;;
11490;SDS011;5802;52.832;4.758;2024-02-14T05:17:25;5.07;;;2.03;;
11490;SDS011;5802;52.832;4.758;2024-02-14T05:19:51;5.03;;;2.05;;
11490;SDS011;5802;52.832;4.758;2024-02-14T05:22:18;6.03;;;2.10;;
11490;SDS011;5802;52.832;4.758;2024-02-14T05:24:45;8.45;;;2.13;;
11490;SDS011;5802;52.832;4.758;2024-02-14T05:27:12;7.35;;;2.15;;
11490;SDS011;5802;52.832;4.758;2024-02-14T05:29:39;7.05;;;2.30;;
11490;SDS011;5802;52.832;4.758;2024-02-14T05:32:07;4.78;;;2.15;;
11490;SDS011;5802;52.832;4.758;2024-02-14T05:34:35;5.95;;;2.03;;
11490;SDS011;5802;52.832;4.758;2024-02-14T05:37:02;7.43;;;2.28;;
11490;SDS011;5802;52.832;4.758;2024-02-14T05:39:30;6.10;;;2.13;;
11490;SDS011;5802;52.832;4.758;2024-02-14T05:41:57;5.72;;;2.38;;
11490;SDS011;5802;52.832;4.758;2024-02-14T05:44:24;7.05;;;2.15;;
11490;SDS011;5802;52.832;4.758;2024-02-14T05:46:52;8.07;;;2.38;;
11490;SDS011;5802;52.832;4.758;2024-02-14T05:49:21;5.38;;;2.40;;
11490;SDS011;5802;52.832;4.758;2024-02-14T05:51:49;4.90;;;2.25;;
11490;SDS011;5802;52.832;4.758;2024-02-14T05:54:17;7.88;;;2.38;;
11490;SDS011;5802;52.832;4.758;2024-02-14T05:56:44;7.10;;;2.53;;
11490;SDS011;5802;52.832;4.758;2024-02-14T05:59:12;7.30;;;2.40;;
11490;SDS011;5802;52.832;4.758;2024-02-14T06:01:39;6.82;;;2.00;;
11490;SDS011;5802;52.832;4.758;2024-02-14T06:04:06;6.80;;;2.35;;
11490;SDS011;5802;52.832;4.758;2024-02-14T06:06:34;5.65;;;2.13;;
11490;SDS011;5802;52.832;4.758;2024-02-14T06:09:01;8.65;;;2.53;;
11490;SDS011;5802;52.832;4.758;2024-02-14T06:11:34;6.53;;;2.15;;
11490;SDS011;5802;52.832;4.758;2024-02-14T06:14:03;5.22;;;2.22;;
11490;SDS011;5802;52.832;4.758;2024-02-14T06:16:30;4.90;;;2.42;;
11490;SDS011;5802;52.832;4.758;2024-02-14T06:18:58;5.88;;;2.47;;
11490;SDS011;5802;52.832;4.758;2024-02-14T06:21:26;5.43;;;1.95;;
11490;SDS011;5802;52.832;4.758;2024-02-14T06:23:55;5.55;;;2.40;;
11490;SDS011;5802;52.832;4.758;2024-02-14T06:26:23;5.70;;;2.70;;
11490;SDS011;5802;52.832;4.758;2024-02-14T06:28:50;7.00;;;2.58;;
11490;SDS011;5802;52.832;4.758;2024-02-14T06:31:19;4.45;;;2.05;;
11490;SDS011;5802;52.832;4.758;2024-02-14T06:33:46;7.30;;;2.35;;
11490;SDS011;5802;52.832;4.758;2024-02-14T06:36:13;6.60;;;2.40;;
11490;SDS011;5802;52.832;4.758;2024-02-14T06:38:40;4.90;;;2.17;;
11490;SDS011;5802;52.832;4.758;2024-02-14T06:41:08;7.40;;;2.60;;
11490;SDS011;5802;52.832;4.758;2024-02-14T06:43:35;7.38;;;2.58;;
11490;SDS011;5802;52.832;4.758;2024-02-14T06:46:04;5.82;;;2.30;;
11490;SDS011;5802;52.832;4.758;2024-02-14T06:48:31;8.35;;;2.92;;
11490;SDS011;5802;52.832;4.758;2024-02-14T06:50:59;5.97;;;2.25;;
11490;SDS011;5802;52.832;4.758;2024-02-14T06:53:25;5.55;;;2.45;;
11490;SDS011;5802;52.832;4.758;2024-02-14T06:55:52;4.88;;;2.42;;
11490;SDS011;5802;52.832;4.758;2024-02-14T06:58:20;7.38;;;2.63;;
11490;SDS011;5802;52.832;4.758;2024-02-14T07:00:47;7.53;;;2.55;;
11490;SDS011;5802;52.832;4.758;2024-02-14T07:03:14;7.47;;;2.35;;
11490;SDS011;5802;52.832;4.758;2024-02-14T07:05:41;5.60;;;2.55;;
11490;SDS011;5802;52.832;4.758;2024-02-14T07:08:08;5.57;;;2.33;;
11490;SDS011;5802;52.832;4.758;2024-02-14T07:10:35;6.05;;;2.38;;
11490;SDS011;5802;52.832;4.758;2024-02-14T07:13:02;7.85;;;2.60;;
11490;SDS011;5802;52.832;4.758;2024-02-14T07:15:30;5.43;;;2.38;;
11490;SDS011;5802;52.832;4.758;2024-02-14T07:17:57;7.47;;;2.20;;
11490;SDS011;5802;52.832;4.758;2024-02-14T07:20:24;5.55;;;2.60;;
11490;SDS011;5802;52.832;4.758;2024-02-14T07:22:52;7.65;;;2.70;;
11490;SDS011;5802;52.832;4.758;2024-02-14T07:25:21;6.57;;;2.65;;
11490;SDS011;5802;52.832;4.758;2024-02-14T07:27:48;6.80;;;2.70;;
11490;SDS011;5802;52.832;4.758;2024-02-14T07:30:15;6.93;;;2.45;;
11490;SDS011;5802;52.832;4.758;2024-02-14T07:32:44;5.97;;;2.35;;
11490;SDS011;5802;52.832;4.758;2024-02-14T07:35:11;4.43;;;1.92;;
11490;SDS011;5802;52.832;4.758;2024-02-14T07:37:38;5.18;;;2.17;;
11490;SDS011;5802;52.832;4.758;2024-02-14T07:40:07;6.53;;;2.28;;
11490;SDS011;5802;52.832;4.758;2024-02-14T07:42:34;4.38;;;1.90;;
11490;SDS011;5802;52.832;4.758;2024-02-14T07:45:01;6.20;;;2.15;;
11490;SDS011;5802;52.832;4.758;2024-02-14T07:47:28;4.68;;;2.30;;
11490;SDS011;5802;52.832;4.758;2024-02-14T07:49:57;5.95;;;2.30;;
11490;SDS011;5802;52.832;4.758;2024-02-14T07:52:24;5.15;;;2.42;;
11490;SDS011;5802;52.832;4.758;2024-02-14T07:54:51;5.30;;;2.13;;
11490;SDS011;5802;52.832;4.758;2024-02-14T07:57:19;5.47;;;1.98;;
11490;SDS011;5802;52.832;4.758;2024-02-14T07:59:46;5.93;;;2.13;;
11490;SDS011;5802;52.832;4.758;2024-02-14T08:02:13;5.18;;;2.10;;
11490;SDS011;5802;52.832;4.758;2024-02-14T08:04:40;5.10;;;2.00;;
11490;SDS011;5802;52.832;4.758;2024-02-14T08:07:08;3.92;;;1.90;;
11490;SDS011;5802;52.832;4.758;2024-02-14T08:09:35;4.88;;;1.83;;
11490;SDS011;5802;52.832;4.758;2024-02-14T08:12:04;4.53;;;2.20;;
11490;SDS011;5802;52.832;4.758;2024-02-14T08:14:31;5.85;;;1.75;;
11490;SDS011;5802;52.832;4.758;2024-02-14T08:16:58;5.35;;;2.20;;
11490;SDS011;5802;52.832;4.758;2024-02-14T08:19:25;3.60;;;1.83;;
11490;SDS011;5802;52.832;4.758;2024-02-14T08:21:52;5.43;;;2.03;;
11490;SDS011;5802;52.832;4.758;2024-02-14T08:24:24;3.35;;;1.80;;
11490;SDS011;5802;52.832;4.758;2024-02-14T08:26:51;3.53;;;1.52;;
11490;SDS011;5802;52.832;4.758;2024-02-14T08:29:18;4.45;;;1.98;;
11490;SDS011;5802;52.832;4.758;2024-02-14T08:31:45;5.07;;;1.90;;
11490;SDS011;5802;52.832;4.758;2024-02-14T08:34:13;3.08;;;1.60;;
11490;SDS011;5802;52.832;4.758;2024-02-14T08:36:40;4.03;;;1.80;;
11490;SDS011;5802;52.832;4.758;2024-02-14T08:39:07;2.95;;;1.73;;
11490;SDS011;5802;52.832;4.758;2024-02-14T08:41:36;3.25;;;1.63;;
11490;SDS011;5802;52.832;4.758;2024-02-14T08:44:03;3.00;;;1.60;;
11490;SDS011;5802;52.832;4.758;2024-02-14T08:46:30;2.95;;;1.40;;
11490;SDS011;5802;52.832;4.758;2024-02-14T08:48:59;2.70;;;1.45;;
11490;SDS011;5802;52.832;4.758;2024-02-14T08:51:27;4.15;;;1.90;;
11490;SDS011;5802;52.832;4.758;2024-02-14T08:53:54;3.55;;;1.70;;
11490;SDS011;5802;52.832;4.758;2024-02-14T08:56:24;4.75;;;1.77;;
11490;SDS011;5802;52.832;4.758;2024-02-14T08:58:52;3.20;;;1.70;;
11490;SDS011;5802;52.832;4.758;2024-02-14T09:01:19;3.63;;;1.80;;
11490;SDS011;5802;52.832;4.758;2024-02-14T09:03:46;3.25;;;1.63;;
11490;SDS011;5802;52.832;4.758;2024-02-14T09:06:13;3.28;;;1.58;;
11490;SDS011;5802;52.832;4.758;2024-02-14T09:08:43;3.08;;;1.50;;
11490;SDS011;5802;52.832;4.758;2024-02-14T09:11:10;3.42;;;1.50;;
11490;SDS011;5802;52.832;4.758;2024-02-14T09:13:37;3.70;;;1.58;;
11490;SDS011;5802;52.832;4.758;2024-02-14T09:16:07;4.65;;;1.85;;
11490;SDS011;5802;52.832;4.758;2024-02-14T09:18:34;6.65;;;1.98;;
11490;SDS011;5802;52.832;4.758;2024-02-14T09:21:01;5.57;;;1.88;;
11490;SDS011;5802;52.832;4.758;2024-02-14T09:23:28;5.65;;;1.80;;
11490;SDS011;5802;52.832;4.758;2024-02-14T09:25:56;5.22;;;1.85;;
11490;SDS011;5802;52.832;4.758;2024-02-14T09:28:23;3.78;;;1.80;;
11490;SDS011;5802;52.832;4.758;2024-02-14T09:30:51;5.72;;;1.60;;
11490;SDS011;5802;52.832;4.758;2024-02-14T09:33:19;5.82;;;1.92;;
11490;SDS011;5802;52.832;4.758;2024-02-14T09:35:46;5.25;;;1.70;;
11490;SDS011;5802;52.832;4.758;2024-02-14T09:38:13;3.83;;;1.33;;
11490;SDS011;5802;52.832;4.758;2024-02-14T09:40:40;3.40;;;1.58;;
11490;SDS011;5802;52.832;4.758;2024-02-14T09:43:09;3.15;;;1.83;;
11490;SDS011;5802;52.832;4.758;2024-02-14T09:45:43;3.55;;;1.60;;
11490;SDS011;5802;52.832;4.758;2024-02-14T09:48:11;5.18;;;1.52;;
11490;SDS011;5802;52.832;4.758;2024-02-14T09:50:41;2.00;;;1.23;;
11490;SDS011;5802;52.832;4.758;2024-02-14T09:53:09;2.92;;;1.60;;
11490;SDS011;5802;52.832;4.758;2024-02-14T09:55:36;2.75;;;1.33;;
11490;SDS011;5802;52.832;4.758;2024-02-14T09:58:05;2.53;;;1.30;;
11490;SDS011;5802;52.832;4.758;2024-02-14T10:00:32;3.22;;;1.65;;
11490;SDS011;5802;52.832;4.758;2024-02-14T10:02:59;2.67;;;1.55;;
11490;SDS011;5802;52.832;4.758;2024-02-14T10:05:26;3.95;;;1.60;;
11490;SDS011;5802;52.832;4.758;2024-02-14T10:07:55;4.15;;;1.65;;
11490;SDS011;5802;52.832;4.758;2024-02-14T10:10:23;4.93;;;1.40;;
11490;SDS011;5802;52.832;4.758;2024-02-14T10:12:50;3.30;;;1.67;;
11490;SDS011;5802;52.832;4.758;2024-02-14T10:15:20;4.18;;;1.45;;
11490;SDS011;5802;52.832;4.758;2024-02-14T10:17:47;2.58;;;1.40;;
11490;SDS011;5802;52.832;4.758;2024-02-14T10:20:16;3.53;;;1.65;;
11490;SDS011;5802;52.832;4.758;2024-02-14T10:22:44;2.67;;;1.48;;
11490;SDS011;5802;52.832;4.758;2024-02-14T10:25:13;3.25;;;1.60;;
11490;SDS011;5802;52.832;4.758;2024-02-14T10:27:40;4.13;;;1.38;;
11490;SDS011;5802;52.832;4.758;2024-02-14T10:30:07;3.20;;;1.38;;
11490;SDS011;5802;52.832;4.758;2024-02-14T10:32:35;1.45;;;1.20;;
11490;SDS011;5802;52.832;4.758;2024-02-14T10:35:04;3.42;;;1.60;;
11490;SDS011;5802;52.832;4.758;2024-02-14T10:37:33;2.72;;;1.50;;
11490;SDS011;5802;52.832;4.758;2024-02-14T10:40:01;2.30;;;1.42;;
11490;SDS011;5802;52.832;4.758;2024-02-14T10:42:30;3.33;;;1.42;;
11490;SDS011;5802;52.832;4.758;2024-02-14T10:44:58;3.05;;;1.30;;
11490;SDS011;5802;52.832;4.758;2024-02-14T10:47:27;3.47;;;1.40;;
11490;SDS011;5802;52.832;4.758;2024-02-14T10:49:57;2.67;;;1.38;;
11490;SDS011;5802;52.832;4.758;2024-02-14T10:52:27;3.10;;;1.30;;
11490;SDS011;5802;52.832;4.758;2024-02-14T10:54:58;3.15;;;1.30;;
11490;SDS011;5802;52.832;4.758;2024-02-14T10:57:28;2.80;;;1.40;;
11490;SDS011;5802;52.832;4.758;2024-02-14T10:59:59;2.17;;;1.17;;
11490;SDS011;5802;52.832;4.758;2024-02-14T11:02:27;3.33;;;1.50;;
11490;SDS011;5802;52.832;4.758;2024-02-14T11:04:55;3.25;;;1.50;;
11490;SDS011;5802;52.832;4.758;2024-02-14T11:07:22;2.30;;;1.42;;
11490;SDS011;5802;52.832;4.758;2024-02-14T11:09:59;2.53;;;1.45;;
11490;SDS011;5802;52.832;4.758;2024-02-14T11:12:31;4.03;;;1.50;;
11490;SDS011;5802;52.832;4.758;2024-02-14T11:15:01;2.15;;;1.30;;
11490;SDS011;5802;52.832;4.758;2024-02-14T11:17:35;2.50;;;1.30;;
11490;SDS011;5802;52.832;4.758;2024-02-14T11:20:11;3.42;;;1.40;;
11490;SDS011;5802;52.832;4.758;2024-02-14T11:22:49;3.15;;;1.52;;
11490;SDS011;5802;52.832;4.758;2024-02-14T11:25:18;2.10;;;1.05;;
11490;SDS011;5802;52.832;4.758;2024-02-14T11:27:50;4.20;;;1.30;;
11490;SDS011;5802;52.832;4.758;2024-02-14T11:30:27;2.85;;;1.38;;
11490;SDS011;5802;52.832;4.758;2024-02-14T11:33:15;2.42;;;1.25;;
11490;SDS011;5802;52.832;4.758;2024-02-14T11:35:44;2.13;;;1.17;;
11490;SDS011;5802;52.832;4.758;2024-02-14T11:38:12;1.92;;;1.10;;
11490;SDS011;5802;52.832;4.758;2024-02-14T11:40:40;3.20;;;1.40;;
11490;SDS011;5802;52.832;4.758;2024-02-14T11:43:10;4.00;;;1.30;;
11490;SDS011;5802;52.832;4.758;2024-02-14T11:45:41;1.75;;;0.98;;
11490;SDS011;5802;52.832;4.758;2024-02-14T11:48:08;2.50;;;1.17;;
11490;SDS011;5802;52.832;4.758;2024-02-14T11:50:38;3.65;;;1.40;;
11490;SDS011;5802;52.832;4.758;2024-02-14T11:53:06;2.28;;;1.13;;
11490;SDS011;5802;52.832;4.758;2024-02-14T11:55:34;2.15;;;1.13;;
11490;SDS011;5802;52.832;4.758;2024-02-14T11:58:02;3.42;;;1.33;;
11490;SDS011;5802;52.832;4.758;2024-02-14T12:00:32;1.55;;;1.05;;
11490;SDS011;5802;52.832;4.758;2024-02-14T12:03:02;2.60;;;1.15;;
11490;SDS011;5802;52.832;4.758;2024-02-14T12:05:30;2.90;;;0.95;;
11490;SDS011;5802;52.832;4.758;2024-02-14T12:07:58;2.53;;;1.27;;
11490;SDS011;5802;52.832;4.758;2024-02-14T12:10:25;2.60;;;1.30;;
11490;SDS011;5802;52.832;4.758;2024-02-14T12:12:52;3.17;;;1.65;;
11490;SDS011;5802;52.832;4.758;2024-02-14T12:15:20;2.90;;;1.27;;
11490;SDS011;5802;52.832;4.758;2024-02-14T12:17:47;2.47;;;1.15;;
11490;SDS011;5802;52.832;4.758;2024-02-14T12:20:16;2.78;;;1.50;;
11490;SDS011;5802;52.832;4.758;2024-02-14T12:22:49;4.72;;;1.67;;
11490;SDS011;5802;52.832;4.758;2024-02-14T12:25:16;4.63;;;1.50;;
11490;SDS011;5802;52.832;4.758;2024-02-14T12:27:49;6.53;;;2.00;;
11490;SDS011;5802;52.832;4.758;2024-02-14T12:30:17;3.08;;;1.40;;
11490;SDS011;5802;52.832;4.758;2024-02-14T12:32:43;7.63;;;1.73;;
11490;SDS011;5802;52.832;4.758;2024-02-14T12:35:11;3.22;;;1.45;;
11490;SDS011;5802;52.832;4.758;2024-02-14T12:37:39;3.38;;;1.60;;
11490;SDS011;5802;52.832;4.758;2024-02-14T12:40:06;3.65;;;1.48;;
11490;SDS011;5802;52.832;4.758;2024-02-14T12:42:34;3.30;;;1.50;;
11490;SDS011;5802;52.832;4.758;2024-02-14T12:45:01;5.72;;;1.60;;
11490;SDS011;5802;52.832;4.758;2024-02-14T12:47:28;2.97;;;1.45;;
11490;SDS011;5802;52.832;4.758;2024-02-14T12:49:58;5.13;;;1.63;;
11490;SDS011;5802;52.832;4.758;2024-02-14T12:52:25;4.05;;;1.38;;
11490;SDS011;5802;52.832;4.758;2024-02-14T12:54:54;2.50;;;1.55;;
11490;SDS011;5802;52.832;4.758;2024-02-14T12:57:20;4.38;;;1.40;;
11490;SDS011;5802;52.832;4.758;2024-02-14T12:59:47;3.78;;;1.20;;
11490;SDS011;5802;52.832;4.758;2024-02-14T13:02:14;2.53;;;1.52;;
11490;SDS011;5802;52.832;4.758;2024-02-14T13:04:42;3.28;;;1.50;;
11490;SDS011;5802;52.832;4.758;2024-02-14T13:07:08;2.83;;;1.45;;
11490;SDS011;5802;52.832;4.758;2024-02-14T13:09:35;3.90;;;1.30;;
11490;SDS011;5802;52.832;4.758;2024-02-14T13:12:05;3.53;;;1.40;;
11490;SDS011;5802;52.832;4.758;2024-02-14T13:14:34;2.63;;;1.38;;
11490;SDS011;5802;52.832;4.758;2024-02-14T13:17:01;4.30;;;1.20;;
11490;SDS011;5802;52.832;4.758;2024-02-14T13:19:29;1.80;;;1.23;;
11490;SDS011;5802;52.832;4.758;2024-02-14T13:21:57;3.00;;;1.23;;
11490;SDS011;5802;52.832;4.758;2024-02-14T13:24:23;3.15;;;1.55;;
11490;SDS011;5802;52.832;4.758;2024-02-14T13:26:50;2.58;;;1.17;;
11490;SDS011;5802;52.832;4.758;2024-02-14T13:29:18;4.25;;;1.25;;
11490;SDS011;5802;52.832;4.758;2024-02-14T13:31:45;2.15;;;1.38;;
11490;SDS011;5802;52.832;4.758;2024-02-14T13:34:12;3.38;;;1.48;;
11490;SDS011;5802;52.832;4.758;2024-02-14T13:36:40;3.10;;;1.48;;
11490;SDS011;5802;52.832;4.758;2024-02-14T13:39:07;7.65;;;1.40;;
11490;SDS011;5802;52.832;4.758;2024-02-14T13:41:34;2.80;;;1.00;;
11490;SDS011;5802;52.832;4.758;2024-02-14T13:44:02;2.10;;;0.93;;
11490;SDS011;5802;52.832;4.758;2024-02-14T13:46:31;2.50;;;1.30;;
11490;SDS011;5802;52.832;4.758;2024-02-14T13:48:58;2.72;;;1.23;;
11490;SDS011;5802;52.832;4.758;2024-02-14T13:51:25;2.80;;;1.33;;
11490;SDS011;5802;52.832;4.758;2024-02-14T13:53:52;2.92;;;1.30;;
11490;SDS011;5802;52.832;4.758;2024-02-14T13:56:19;2.83;;;1.13;;
11490;SDS011;5802;52.832;4.758;2024-02-14T13:58:47;3.80;;;1.20;;
11490;SDS011;5802;52.832;4.758;2024-02-14T14:01:15;2.42;;;1.10;;
11490;SDS011;5802;52.832;4.758;2024-02-14T14:03:43;1.38;;;1.13;;
11490;SDS011;5802;52.832;4.758;2024-02-14T14:06:11;1.80;;;1.20;;
11490;SDS011;5802;52.832;4.758;2024-02-14T14:08:38;2.33;;;0.93;;
11490;SDS011;5802;52.832;4.758;2024-02-14T14:11:06;2.35;;;1.20;;
11490;SDS011;5802;52.832;4.758;2024-02-14T14:13:33;2.35;;;1.02;;
11490;SDS011;5802;52.832;4.758;2024-02-14T14:16:00;2.00;;;1.15;;
11490;SDS011;5802;52.832;4.758;2024-02-14T14:18:30;2.22;;;1.10;;
11490;SDS011;5802;52.832;4.758;2024-02-14T14:20:58;2.55;;;1.10;;
11490;SDS011;5802;52.832;4.758;2024-02-14T14:23:25;4.50;;;1.10;;
11490;SDS011;5802;52.832;4.758;2024-02-14T14:25:52;1.58;;;0.88;;
11490;SDS011;5802;52.832;4.758;2024-02-14T14:28:18;1.65;;;1.15;;
11490;SDS011;5802;52.832;4.758;2024-02-14T14:30:49;1.38;;;0.85;;
11490;SDS011;5802;52.832;4.758;2024-02-14T14:33:17;2.17;;;1.10;;
11490;SDS011;5802;52.832;4.758;2024-02-14T14:35:44;1.20;;;0.90;;
11490;SDS011;5802;52.832;4.758;2024-02-14T14:38:12;9.57;;;1.33;;
11490;SDS011;5802;52.832;4.758;2024-02-14T14:40:40;2.30;;;1.17;;
11490;SDS011;5802;52.832;4.758;2024-02-14T14:43:06;1.98;;;0.95;;
11490;SDS011;5802;52.832;4.758;2024-02-14T14:45:33;1.27;;;1.00;;
11490;SDS011;5802;52.832;4.758;2024-02-14T14:48:00;1.92;;;1.15;;
11490;SDS011;5802;52.832;4.758;2024-02-14T14:50:27;4.28;;;1.23;;
11490;SDS011;5802;52.832;4.758;2024-02-14T14:52:56;1.88;;;0.90;;
11490;SDS011;5802;52.832;4.758;2024-02-14T14:55:25;2.00;;;1.00;;
11490;SDS011;5802;52.832;4.758;2024-02-14T14:57:53;2.97;;;1.27;;
11490;SDS011;5802;52.832;4.758;2024-02-14T15:00:22;2.28;;;1.02;;
11490;SDS011;5802;52.832;4.758;2024-02-14T15:02:49;3.22;;;1.13;;